Fallon, North Dakota
Current Conditions -  °F | °C
As of 9:15 AM on Thursday 18 Dec 2014 (Local Time) from KY19 Reporting Station
Haze Haze  
Wind Chill:   Ceiling: 400
Heat Index: 18°   Visibility: 5mi
Dew Point: 16°   Wind: 9mph
Humidity: 93%   Direction: 150°SSE
Pressure: 30.07"   Gusts: NA
Location:  46.4673°N, 101.102°W
Report Text: KY19 181515Z AUTO 15008KT 5SM BR OVC004 M08/M09 A3007 RMK AO2
Loading
Personal Weather Stations






























Interactive Weather Map New forecast layout! Learn more

10-Day Weather Forecast

Advertisements
Track Severe Weather on mobile